MET'MAP v2.0
soon released !

Expected late october,
this new version will be
more efficient, smarter,
and hosted on a brand new
server x3 powerfull...
...and still free !


Not compatible ?
Try the mobile version !

LOG IN : | Subscribe | Disclaimer | Who is Orbifly ? |
ICAO code :

TAF - EDDR Saarbrücken - 06 Dec 2019 22:39 UTC
Data Sources :     NOAA   


- Airport Elevation : 1058 ft
- IATA code : SCN
- No reported NOTAMs.


EDDR - Saarbrücken

Latest METAR recorded : 2015/08/11 07:50 EDDR 110750Z 05006KT 340V100 9999 FEW020 22/16 Q1018 NOSIG
TAF TAF EDDR
Valid from the 06 at 18:00 until the 07 at 18:00 UTC


061700Z 0618/0718 22010KT 9999 BKN015
PROB40
TEMPO 0618/0624 22015G25KT 3000 RA BR BKN008
BECMG 0700/0702 22015G30KT
TEMPO 0700/0711 1400 DZ BR BKN002
BECMG 0706/0708 23011KT
TEMPO 0711/0718 3000 BR BKN008

Source NOAA


MET'MAP, your aeronautical weather chart ! - Copyright ORBIFLY December 2007

Programming & Development : Alexandra Zaïnal
Co-Developer : Marc-Olivier Méhu
Technical & hardware support : Manuel Goepfert
Concept & Financing : Baudouin d'Aumeries